Pagina principale
METAR-TAF:

METAR-TAF

Aeroporti :

Berna, Svizzera

Aeroporto di Berna

latitudine: 46-55N, longitudine: 007-30E, altezza: 505 m

Osservazione

Il bollettino è stato emesso 17 minuti fa, alle 07:50 UTC
Vento calmo
Temperature 21°C
Umidità 60%
Pressione 1021 hPa
Visibilità 10 km o più
nessuna nube inferiore a 1500 m e nessun cumulonembo

METAR: LSZB 270750Z 00000KT CAVOK 21/13 Q1021 NOSIG

Ora: 10:07 (08:07 UTC)

Previsione

Il bollettino è stato emesso 2 ore e 42 minuti fa, alle 05:25 UTC
Previsione valida dal 27 alle 06 UTC al 27 alle 15 UTC
Vento 3 kt da direzioni variabili
Visibilità 10 km o più
nessuna nube inferiore a 1500 m e nessun cumulonembo
Temporaneamente
dal 27 alle 13 UTC al 27 alle 15 UTC
Visibilità 10 km o più
Poco nuvoloso ad un'altezza di 6000 ft

TAF: LSZB 270525Z 2706/2715 VRB03KT CAVOK TEMPO 2713/2715 9999 FEW060

Osservazioni e previsioni meteorologiche di più di 4000 aeroporti (messaggi METAR e TAF).

Le stazioni disponibili sono rappresentate dai dischi gialli e rossi sulla carta.

Puntare il mouse per vedere il nome della stazione.

Clicca sopra per visualizzare le osservazioni e previsioni meteorologiche.

Per cambiare la mappa : fare clic sui pulsanti verdi con una croce nera per ingrandire, il pulsante verde con un trattino per diminuire, o sulla freccia verde per le mappe adiacenti.


METAR-TAF: